sensor_id;sensor_type;location;lat;lon;timestamp;pressure;altitude;pressure_sealevel;temperature;humidity
77975;BME280;67164;51.202;0.278;2023-05-03T00:00:12;102541.45;;;20.56;43.87
77975;BME280;67164;51.202;0.278;2023-05-03T00:02:37;102539.10;;;20.52;43.89
77975;BME280;67164;51.202;0.278;2023-05-03T00:05:03;102538.73;;;20.45;43.83
77975;BME280;67164;51.202;0.278;2023-05-03T00:07:29;102540.38;;;20.46;44.06
77975;BME280;67164;51.202;0.278;2023-05-03T00:09:54;102540.16;;;20.47;43.81
77975;BME280;67164;51.202;0.278;2023-05-03T00:12:20;102540.53;;;20.45;43.95
77975;BME280;67164;51.202;0.278;2023-05-03T00:14:46;102541.90;;;20.47;44.09
77975;BME280;67164;51.202;0.278;2023-05-03T00:17:12;102538.93;;;20.36;43.79
77975;BME280;67164;51.202;0.278;2023-05-03T00:19:38;102538.51;;;20.43;43.93
77975;BME280;67164;51.202;0.278;2023-05-03T00:22:04;102535.24;;;20.39;44.05
77975;BME280;67164;51.202;0.278;2023-05-03T00:24:29;102535.32;;;20.35;44.03
77975;BME280;67164;51.202;0.278;2023-05-03T00:26:55;102534.84;;;20.61;44.01
77975;BME280;67164;51.202;0.278;2023-05-03T00:29:21;102535.57;;;20.53;44.14
77975;BME280;67164;51.202;0.278;2023-05-03T00:31:47;102531.95;;;20.30;43.94
77975;BME280;67164;51.202;0.278;2023-05-03T00:34:13;102531.09;;;20.56;43.78
77975;BME280;67164;51.202;0.278;2023-05-03T00:36:39;102534.84;;;20.34;43.92
77975;BME280;67164;51.202;0.278;2023-05-03T00:39:04;102533.14;;;20.30;44.07
77975;BME280;67164;51.202;0.278;2023-05-03T00:41:30;102530.96;;;20.27;44.07
77975;BME280;67164;51.202;0.278;2023-05-03T00:43:56;102530.08;;;20.20;43.98
77975;BME280;67164;51.202;0.278;2023-05-03T00:46:22;102524.51;;;20.23;43.84
77975;BME280;67164;51.202;0.278;2023-05-03T00:48:48;102526.51;;;20.20;43.68
77975;BME280;67164;51.202;0.278;2023-05-03T00:51:14;102526.57;;;20.22;43.91
77975;BME280;67164;51.202;0.278;2023-05-03T00:53:39;102524.98;;;20.15;43.98
77975;BME280;67164;51.202;0.278;2023-05-03T00:56:06;102523.21;;;20.30;44.00
77975;BME280;67164;51.202;0.278;2023-05-03T00:58:31;102519.94;;;20.36;43.92
77975;BME280;67164;51.202;0.278;2023-05-03T01:00:57;102518.74;;;20.59;43.92
77975;BME280;67164;51.202;0.278;2023-05-03T01:03:23;102518.76;;;20.59;43.91
77975;BME280;67164;51.202;0.278;2023-05-03T01:05:54;102521.40;;;20.09;43.81
77975;BME280;67164;51.202;0.278;2023-05-03T01:08:19;102520.08;;;20.06;43.83
77975;BME280;67164;51.202;0.278;2023-05-03T01:10:45;102520.69;;;20.27;43.60
77975;BME280;67164;51.202;0.278;2023-05-03T01:13:10;102521.89;;;20.25;44.06
77975;BME280;67164;51.202;0.278;2023-05-03T01:15:43;102522.83;;;20.02;43.85
77975;BME280;67164;51.202;0.278;2023-05-03T01:18:05;102517.46;;;20.08;43.87
77975;BME280;67164;51.202;0.278;2023-05-03T01:20:27;102516.30;;;20.10;43.62
77975;BME280;67164;51.202;0.278;2023-05-03T01:23:00;102515.29;;;20.08;43.58
77975;BME280;67164;51.202;0.278;2023-05-03T01:25:16;102511.30;;;20.37;43.65
77975;BME280;67164;51.202;0.278;2023-05-03T01:27:43;102507.19;;;20.10;43.07
77975;BME280;67164;51.202;0.278;2023-05-03T01:30:11;102507.11;;;20.09;43.46
77975;BME280;67164;51.202;0.278;2023-05-03T01:32:45;102503.73;;;20.05;43.74
77975;BME280;67164;51.202;0.278;2023-05-03T01:35:03;102504.33;;;20.06;43.67
77975;BME280;67164;51.202;0.278;2023-05-03T01:37:26;102502.87;;;19.99;43.68
77975;BME280;67164;51.202;0.278;2023-05-03T01:39:58;102502.98;;;20.04;43.67
77975;BME280;67164;51.202;0.278;2023-05-03T01:42:17;102503.96;;;20.17;43.49
77975;BME280;67164;51.202;0.278;2023-05-03T01:44:44;102503.88;;;20.08;43.59
77975;BME280;67164;51.202;0.278;2023-05-03T01:47:08;102499.61;;;20.03;43.59
77975;BME280;67164;51.202;0.278;2023-05-03T01:49:35;102498.05;;;20.08;43.32
77975;BME280;67164;51.202;0.278;2023-05-03T01:52:01;102498.91;;;20.04;43.49
77975;BME280;67164;51.202;0.278;2023-05-03T01:54:25;102496.89;;;19.81;43.48
77975;BME280;67164;51.202;0.278;2023-05-03T01:56:50;102494.38;;;20.01;43.28
77975;BME280;67164;51.202;0.278;2023-05-03T01:59:16;102495.01;;;20.17;42.96
77975;BME280;67164;51.202;0.278;2023-05-03T02:01:42;102493.43;;;20.58;42.65
77975;BME280;67164;51.202;0.278;2023-05-03T02:04:08;102500.56;;;20.39;42.90
77975;BME280;67164;51.202;0.278;2023-05-03T02:06:35;102500.20;;;20.18;43.20
77975;BME280;67164;51.202;0.278;2023-05-03T02:09:02;102497.32;;;20.17;43.13
77975;BME280;67164;51.202;0.278;2023-05-03T02:11:27;102496.19;;;20.01;43.15
77975;BME280;67164;51.202;0.278;2023-05-03T02:13:54;102496.07;;;20.09;43.56
77975;BME280;67164;51.202;0.278;2023-05-03T02:16:18;102496.54;;;19.82;43.36
77975;BME280;67164;51.202;0.278;2023-05-03T02:18:44;102496.73;;;19.69;43.72
77975;BME280;67164;51.202;0.278;2023-05-03T02:21:09;102496.93;;;20.04;43.55
77975;BME280;67164;51.202;0.278;2023-05-03T02:23:35;102497.71;;;20.02;43.51
77975;BME280;67164;51.202;0.278;2023-05-03T02:26:01;102500.06;;;19.89;43.70
77975;BME280;67164;51.202;0.278;2023-05-03T02:28:27;102492.87;;;19.96;43.69
77975;BME280;67164;51.202;0.278;2023-05-03T02:30:52;102489.24;;;19.99;43.14
77975;BME280;67164;51.202;0.278;2023-05-03T02:33:18;102493.41;;;20.12;43.48
77975;BME280;67164;51.202;0.278;2023-05-03T02:35:44;102491.49;;;19.67;43.71
77975;BME280;67164;51.202;0.278;2023-05-03T02:38:10;102491.39;;;20.02;43.55
77975;BME280;67164;51.202;0.278;2023-05-03T02:40:36;102490.70;;;20.02;43.16
77975;BME280;67164;51.202;0.278;2023-05-03T02:43:12;102496.37;;;19.80;43.17
77975;BME280;67164;51.202;0.278;2023-05-03T02:45:28;102499.21;;;19.82;43.38
77975;BME280;67164;51.202;0.278;2023-05-03T02:47:53;102497.09;;;19.83;43.20
77975;BME280;67164;51.202;0.278;2023-05-03T02:50:18;102492.97;;;19.96;43.33
77975;BME280;67164;51.202;0.278;2023-05-03T02:52:44;102489.76;;;19.84;43.02
77975;BME280;67164;51.202;0.278;2023-05-03T02:55:10;102490.95;;;19.67;43.35
77975;BME280;67164;51.202;0.278;2023-05-03T02:57:36;102491.02;;;19.66;43.43
77975;BME280;67164;51.202;0.278;2023-05-03T03:00:02;102491.86;;;20.25;42.89
77975;BME280;67164;51.202;0.278;2023-05-03T03:02:28;102488.21;;;19.71;43.26
77975;BME280;67164;51.202;0.278;2023-05-03T03:04:53;102486.34;;;19.75;43.13
77975;BME280;67164;51.202;0.278;2023-05-03T03:07:19;102486.62;;;19.69;43.19
77975;BME280;67164;51.202;0.278;2023-05-03T03:12:11;102485.27;;;19.85;42.62
77975;BME280;67164;51.202;0.278;2023-05-03T03:14:36;102484.90;;;20.10;42.36
77975;BME280;67164;51.202;0.278;2023-05-03T03:17:06;102481.91;;;19.90;42.28
77975;BME280;67164;51.202;0.278;2023-05-03T03:19:28;102482.61;;;19.94;42.33
77975;BME280;67164;51.202;0.278;2023-05-03T03:21:54;102483.45;;;19.73;42.56
77975;BME280;67164;51.202;0.278;2023-05-03T03:24:19;102483.04;;;19.88;42.69
77975;BME280;67164;51.202;0.278;2023-05-03T03:26:45;102472.32;;;19.97;43.04
77975;BME280;67164;51.202;0.278;2023-05-03T03:29:11;102467.90;;;19.76;42.74
77975;BME280;67164;51.202;0.278;2023-05-03T03:31:37;102466.95;;;19.88;43.05
77975;BME280;67164;51.202;0.278;2023-05-03T03:34:03;102462.39;;;19.67;42.93
77975;BME280;67164;51.202;0.278;2023-05-03T03:36:29;102457.71;;;20.13;42.59
77975;BME280;67164;51.202;0.278;2023-05-03T03:38:54;102453.37;;;19.87;42.88
77975;BME280;67164;51.202;0.278;2023-05-03T03:41:22;102451.92;;;20.04;42.86
77975;BME280;67164;51.202;0.278;2023-05-03T03:43:47;102452.54;;;19.91;42.86
77975;BME280;67164;51.202;0.278;2023-05-03T03:46:12;102452.69;;;19.67;42.90
77975;BME280;67164;51.202;0.278;2023-05-03T03:48:43;102447.77;;;19.55;43.15
77975;BME280;67164;51.202;0.278;2023-05-03T03:51:09;102450.75;;;19.76;43.26
77975;BME280;67164;51.202;0.278;2023-05-03T03:53:29;102450.01;;;19.54;43.24
77975;BME280;67164;51.202;0.278;2023-05-03T03:55:55;102446.84;;;19.91;42.89
77975;BME280;67164;51.202;0.278;2023-05-03T03:58:21;102446.88;;;19.55;42.79
77975;BME280;67164;51.202;0.278;2023-05-03T04:00:47;102444.16;;;19.92;42.68
77975;BME280;67164;51.202;0.278;2023-05-03T04:03:14;102442.98;;;19.67;42.99
77975;BME280;67164;51.202;0.278;2023-05-03T04:05:39;102441.63;;;19.82;42.86
77975;BME280;67164;51.202;0.278;2023-05-03T04:08:05;102436.51;;;19.85;42.94
77975;BME280;67164;51.202;0.278;2023-05-03T04:10:35;102435.92;;;19.57;42.71
77975;BME280;67164;51.202;0.278;2023-05-03T04:12:56;102432.15;;;19.82;42.94
77975;BME280;67164;51.202;0.278;2023-05-03T04:15:22;102426.06;;;19.62;43.04
77975;BME280;67164;51.202;0.278;2023-05-03T04:17:47;102428.90;;;19.58;42.96
77975;BME280;67164;51.202;0.278;2023-05-03T04:20:12;102427.68;;;19.67;42.95
77975;BME280;67164;51.202;0.278;2023-05-03T04:22:39;102429.50;;;19.79;42.80
77975;BME280;67164;51.202;0.278;2023-05-03T04:25:07;102425.60;;;19.70;42.97
77975;BME280;67164;51.202;0.278;2023-05-03T04:27:30;102421.64;;;19.63;43.05
77975;BME280;67164;51.202;0.278;2023-05-03T04:29:56;102419.37;;;19.54;43.30
77975;BME280;67164;51.202;0.278;2023-05-03T04:32:22;102416.76;;;19.68;42.94
77975;BME280;67164;51.202;0.278;2023-05-03T04:34:48;102415.10;;;19.75;43.04
77975;BME280;67164;51.202;0.278;2023-05-03T04:37:13;102417.09;;;19.69;42.99
77975;BME280;67164;51.202;0.278;2023-05-03T04:39:39;102412.98;;;19.50;42.92
77975;BME280;67164;51.202;0.278;2023-05-03T04:42:05;102410.91;;;19.49;42.77
77975;BME280;67164;51.202;0.278;2023-05-03T04:44:41;102410.23;;;19.41;43.02
77975;BME280;67164;51.202;0.278;2023-05-03T04:46:58;102410.52;;;19.57;42.86
77975;BME280;67164;51.202;0.278;2023-05-03T04:49:23;102410.88;;;19.51;43.11
77975;BME280;67164;51.202;0.278;2023-05-03T04:51:48;102412.43;;;19.45;43.06
77975;BME280;67164;51.202;0.278;2023-05-03T04:54:14;102412.78;;;19.62;42.95
77975;BME280;67164;51.202;0.278;2023-05-03T04:56:40;102415.39;;;19.53;43.15
77975;BME280;67164;51.202;0.278;2023-05-03T04:59:06;102417.88;;;19.53;42.93
77975;BME280;67164;51.202;0.278;2023-05-03T05:01:31;102416.25;;;19.53;43.13
77975;BME280;67164;51.202;0.278;2023-05-03T05:04:03;102414.35;;;19.37;42.85
77975;BME280;67164;51.202;0.278;2023-05-03T05:06:25;102412.48;;;19.55;42.85
77975;BME280;67164;51.202;0.278;2023-05-03T05:08:51;102412.87;;;19.54;42.94
77975;BME280;67164;51.202;0.278;2023-05-03T05:11:16;102414.26;;;19.48;43.09
77975;BME280;67164;51.202;0.278;2023-05-03T05:13:48;102418.08;;;19.44;43.05
77975;BME280;67164;51.202;0.278;2023-05-03T05:16:09;102421.52;;;19.46;42.98
77975;BME280;67164;51.202;0.278;2023-05-03T05:18:33;102422.54;;;19.21;43.06
77975;BME280;67164;51.202;0.278;2023-05-03T05:20:58;102420.93;;;19.44;42.84
77975;BME280;67164;51.202;0.278;2023-05-03T05:23:27;102428.78;;;19.15;42.94
77975;BME280;67164;51.202;0.278;2023-05-03T05:25:50;102436.43;;;19.48;43.04
77975;BME280;67164;51.202;0.278;2023-05-03T05:28:18;102438.70;;;19.46;42.98
77975;BME280;67164;51.202;0.278;2023-05-03T05:30:42;102439.76;;;19.44;42.76
77975;BME280;67164;51.202;0.278;2023-05-03T05:33:12;102436.13;;;19.35;42.96
77975;BME280;67164;51.202;0.278;2023-05-03T05:35:33;102438.74;;;19.35;43.10
77975;BME280;67164;51.202;0.278;2023-05-03T05:37:59;102442.88;;;19.43;42.97
77975;BME280;67164;51.202;0.278;2023-05-03T05:40:24;102442.29;;;19.44;42.92
77975;BME280;67164;51.202;0.278;2023-05-03T05:42:50;102442.95;;;19.23;42.98
77975;BME280;67164;51.202;0.278;2023-05-03T05:45:18;102443.24;;;19.37;43.05
77975;BME280;67164;51.202;0.278;2023-05-03T05:47:42;102447.91;;;19.44;42.95
77975;BME280;67164;51.202;0.278;2023-05-03T05:50:08;102448.61;;;19.45;43.01
77975;BME280;67164;51.202;0.278;2023-05-03T05:52:38;102446.46;;;19.49;42.77
77975;BME280;67164;51.202;0.278;2023-05-03T05:55:04;102445.97;;;19.47;42.90
77975;BME280;67164;51.202;0.278;2023-05-03T05:57:25;102445.04;;;19.20;42.99
77975;BME280;67164;51.202;0.278;2023-05-03T05:59:51;102446.65;;;19.47;42.77
77975;BME280;67164;51.202;0.278;2023-05-03T06:02:17;102445.37;;;19.43;42.84
77975;BME280;67164;51.202;0.278;2023-05-03T06:04:43;102445.41;;;19.50;42.87
77975;BME280;67164;51.202;0.278;2023-05-03T06:07:08;102443.80;;;19.35;43.07
77975;BME280;67164;51.202;0.278;2023-05-03T06:09:34;102444.74;;;19.17;42.80
77975;BME280;67164;51.202;0.278;2023-05-03T06:12:00;102448.08;;;19.41;42.98
77975;BME280;67164;51.202;0.278;2023-05-03T06:14:25;102450.66;;;19.32;43.04
77975;BME280;67164;51.202;0.278;2023-05-03T06:16:51;102448.40;;;19.35;42.88
77975;BME280;67164;51.202;0.278;2023-05-03T06:19:17;102449.28;;;19.27;43.27
77975;BME280;67164;51.202;0.278;2023-05-03T06:21:43;102447.89;;;19.22;43.22
77975;BME280;67164;51.202;0.278;2023-05-03T06:24:08;102451.39;;;19.50;43.32
77975;BME280;67164;51.202;0.278;2023-05-03T06:26:39;102448.86;;;19.43;43.66
77975;BME280;67164;51.202;0.278;2023-05-03T06:29:02;102451.10;;;19.22;43.25
77975;BME280;67164;51.202;0.278;2023-05-03T06:31:26;102449.34;;;19.22;43.53
77975;BME280;67164;51.202;0.278;2023-05-03T06:33:53;102451.88;;;19.26;43.20
77975;BME280;67164;51.202;0.278;2023-05-03T06:36:23;102448.13;;;19.25;43.35
77975;BME280;67164;51.202;0.278;2023-05-03T06:38:48;102446.56;;;19.49;43.43
77975;BME280;67164;51.202;0.278;2023-05-03T06:41:09;102449.72;;;19.31;43.23
77975;BME280;67164;51.202;0.278;2023-05-03T06:43:35;102447.52;;;19.29;43.30
77975;BME280;67164;51.202;0.278;2023-05-03T06:46:02;102439.04;;;19.34;42.94
77975;BME280;67164;51.202;0.278;2023-05-03T06:48:27;102438.67;;;19.45;42.52
77975;BME280;67164;51.202;0.278;2023-05-03T06:50:57;102439.93;;;19.64;41.85
77975;BME280;67164;51.202;0.278;2023-05-03T06:53:18;102439.96;;;19.92;41.82
77975;BME280;67164;51.202;0.278;2023-05-03T06:55:44;102439.33;;;19.73;41.70
77975;BME280;67164;51.202;0.278;2023-05-03T06:58:10;102441.57;;;20.28;41.90
77975;BME280;67164;51.202;0.278;2023-05-03T07:00:36;102442.19;;;19.64;43.26
77975;BME280;67164;51.202;0.278;2023-05-03T07:03:01;102437.09;;;20.00;41.95
77975;BME280;67164;51.202;0.278;2023-05-03T07:05:33;102435.74;;;19.98;41.82
77975;BME280;67164;51.202;0.278;2023-05-03T07:07:53;102438.47;;;20.07;41.88
77975;BME280;67164;51.202;0.278;2023-05-03T07:10:19;102434.58;;;19.96;42.04
77975;BME280;67164;51.202;0.278;2023-05-03T07:12:45;102436.92;;;19.97;42.34
77975;BME280;67164;51.202;0.278;2023-05-03T07:15:11;102435.32;;;19.21;43.30
77975;BME280;67164;51.202;0.278;2023-05-03T07:17:36;102434.04;;;19.16;43.46
77975;BME280;67164;51.202;0.278;2023-05-03T07:20:03;102431.69;;;19.38;43.59
77975;BME280;67164;51.202;0.278;2023-05-03T07:22:28;102428.66;;;19.08;43.77
77975;BME280;67164;51.202;0.278;2023-05-03T07:24:54;102421.35;;;19.59;43.57
77975;BME280;67164;51.202;0.278;2023-05-03T07:27:20;102421.60;;;20.04;43.26
77975;BME280;67164;51.202;0.278;2023-05-03T07:29:45;102421.19;;;20.20;42.67
77975;BME280;67164;51.202;0.278;2023-05-03T07:32:11;102422.44;;;20.04;39.63
77975;BME280;67164;51.202;0.278;2023-05-03T07:34:36;102417.82;;;19.84;38.54
77975;BME280;67164;51.202;0.278;2023-05-03T07:37:01;102414.59;;;20.26;37.85
77975;BME280;67164;51.202;0.278;2023-05-03T07:39:27;102417.54;;;19.87;37.82
77975;BME280;67164;51.202;0.278;2023-05-03T07:41:53;102411.99;;;19.87;37.87
77975;BME280;67164;51.202;0.278;2023-05-03T07:44:18;102411.49;;;20.03;37.64
77975;BME280;67164;51.202;0.278;2023-05-03T07:46:44;102407.95;;;20.03;37.13
77975;BME280;67164;51.202;0.278;2023-05-03T07:49:09;102403.20;;;19.99;36.94
77975;BME280;67164;51.202;0.278;2023-05-03T07:51:40;102405.38;;;19.99;37.19
77975;BME280;67164;51.202;0.278;2023-05-03T07:54:00;102406.22;;;20.07;36.98
77975;BME280;67164;51.202;0.278;2023-05-03T07:56:26;102404.92;;;19.88;36.79
77975;BME280;67164;51.202;0.278;2023-05-03T07:58:51;102411.66;;;19.84;36.61
77975;BME280;67164;51.202;0.278;2023-05-03T08:01:22;102408.39;;;19.98;36.82
77975;BME280;67164;51.202;0.278;2023-05-03T08:03:43;102416.47;;;20.13;36.72
77975;BME280;67164;51.202;0.278;2023-05-03T08:06:08;102409.48;;;19.69;36.54
77975;BME280;67164;51.202;0.278;2023-05-03T08:08:34;102411.52;;;19.90;36.62
77975;BME280;67164;51.202;0.278;2023-05-03T08:11:00;102415.80;;;19.92;36.61
77975;BME280;67164;51.202;0.278;2023-05-03T08:13:26;102416.31;;;19.90;36.75
77975;BME280;67164;51.202;0.278;2023-05-03T08:15:52;102418.87;;;19.98;36.04
77975;BME280;67164;51.202;0.278;2023-05-03T08:18:17;102415.09;;;19.97;36.79
77975;BME280;67164;51.202;0.278;2023-05-03T08:20:43;102411.89;;;20.11;36.21
77975;BME280;67164;51.202;0.278;2023-05-03T08:23:08;102408.32;;;20.14;36.86
77975;BME280;67164;51.202;0.278;2023-05-03T08:25:39;102410.82;;;20.14;36.14
77975;BME280;67164;51.202;0.278;2023-05-03T08:28:00;102405.51;;;20.00;36.90
77975;BME280;67164;51.202;0.278;2023-05-03T08:30:25;102403.01;;;20.00;36.15
77975;BME280;67164;51.202;0.278;2023-05-03T08:32:51;102409.54;;;20.26;36.89
77975;BME280;67164;51.202;0.278;2023-05-03T08:35:17;102410.28;;;20.18;36.78
77975;BME280;67164;51.202;0.278;2023-05-03T08:37:43;102405.05;;;19.62;36.11
77975;BME280;67164;51.202;0.278;2023-05-03T08:40:08;102410.39;;;19.89;35.95
77975;BME280;67164;51.202;0.278;2023-05-03T08:42:33;102408.76;;;20.06;35.70
77975;BME280;67164;51.202;0.278;2023-05-03T08:44:58;102405.28;;;19.96;35.69
77975;BME280;67164;51.202;0.278;2023-05-03T08:47:24;102407.56;;;19.73;35.74
77975;BME280;67164;51.202;0.278;2023-05-03T08:49:52;102404.67;;;19.16;38.13
77975;BME280;67164;51.202;0.278;2023-05-03T08:52:15;102413.89;;;20.13;36.44
77975;BME280;67164;51.202;0.278;2023-05-03T08:54:41;102405.46;;;19.83;36.27
77975;BME280;67164;51.202;0.278;2023-05-03T08:57:09;102396.70;;;19.95;36.67
77975;BME280;67164;51.202;0.278;2023-05-03T08:59:32;102396.75;;;20.08;36.97
77975;BME280;67164;51.202;0.278;2023-05-03T09:01:58;102399.41;;;20.31;37.11
77975;BME280;67164;51.202;0.278;2023-05-03T09:04:31;102396.85;;;20.59;37.33
77975;BME280;67164;51.202;0.278;2023-05-03T09:06:49;102400.52;;;20.89;37.62
77975;BME280;67164;51.202;0.278;2023-05-03T09:09:14;102403.38;;;20.86;37.69
77975;BME280;67164;51.202;0.278;2023-05-03T09:11:40;102400.98;;;20.39;37.90
77975;BME280;67164;51.202;0.278;2023-05-03T09:14:08;102400.62;;;20.64;37.93
77975;BME280;67164;51.202;0.278;2023-05-03T09:16:31;102404.28;;;20.23;38.17
77975;BME280;67164;51.202;0.278;2023-05-03T09:18:59;102404.43;;;20.59;38.47
77975;BME280;67164;51.202;0.278;2023-05-03T09:21:23;102404.21;;;20.65;38.45
77975;BME280;67164;51.202;0.278;2023-05-03T09:23:48;102401.23;;;20.75;38.67
77975;BME280;67164;51.202;0.278;2023-05-03T09:26:26;102403.92;;;20.20;38.65
77975;BME280;67164;51.202;0.278;2023-05-03T09:28:41;102403.71;;;20.64;38.84
77975;BME280;67164;51.202;0.278;2023-05-03T09:31:11;102398.78;;;19.86;39.31
77975;BME280;67164;51.202;0.278;2023-05-03T09:33:32;102393.68;;;20.10;39.34
77975;BME280;67164;51.202;0.278;2023-05-03T09:35:58;102386.05;;;20.47;39.25
77975;BME280;67164;51.202;0.278;2023-05-03T09:38:26;102391.33;;;20.13;39.44
77975;BME280;67164;51.202;0.278;2023-05-03T09:40:49;102394.57;;;20.27;39.33
77975;BME280;67164;51.202;0.278;2023-05-03T09:43:14;102390.16;;;20.43;39.49
77975;BME280;67164;51.202;0.278;2023-05-03T09:45:39;102383.46;;;19.94;39.79
77975;BME280;67164;51.202;0.278;2023-05-03T09:48:06;102387.23;;;19.62;39.94
77975;BME280;67164;51.202;0.278;2023-05-03T09:50:32;102384.88;;;19.78;39.79
77975;BME280;67164;51.202;0.278;2023-05-03T09:52:58;102382.08;;;19.79;39.76
77975;BME280;67164;51.202;0.278;2023-05-03T09:55:21;102374.09;;;20.12;39.62
77975;BME280;67164;51.202;0.278;2023-05-03T09:57:47;102374.61;;;20.46;39.45
77975;BME280;67164;51.202;0.278;2023-05-03T10:00:14;102372.42;;;20.02;39.41
77975;BME280;67164;51.202;0.278;2023-05-03T10:02:44;102369.68;;;20.35;39.54
77975;BME280;67164;51.202;0.278;2023-05-03T10:05:06;102369.59;;;20.25;39.36
77975;BME280;67164;51.202;0.278;2023-05-03T10:07:31;102367.25;;;19.86;39.65
77975;BME280;67164;51.202;0.278;2023-05-03T10:10:02;102362.65;;;20.24;39.70
77975;BME280;67164;51.202;0.278;2023-05-03T10:12:23;102362.16;;;20.19;39.70
77975;BME280;67164;51.202;0.278;2023-05-03T10:14:49;102362.56;;;20.41;39.43
77975;BME280;67164;51.202;0.278;2023-05-03T10:17:17;102357.49;;;20.20;39.32
77975;BME280;67164;51.202;0.278;2023-05-03T10:19:46;102357.58;;;19.85;39.47
77975;BME280;67164;51.202;0.278;2023-05-03T10:22:06;102358.46;;;19.92;39.65
77975;BME280;67164;51.202;0.278;2023-05-03T10:24:32;102359.65;;;19.97;39.65
77975;BME280;67164;51.202;0.278;2023-05-03T10:27:05;102354.06;;;19.73;39.64
77975;BME280;67164;51.202;0.278;2023-05-03T10:31:48;102356.70;;;19.88;39.65
77975;BME280;67164;51.202;0.278;2023-05-03T10:34:21;102356.00;;;20.44;39.68
77975;BME280;67164;51.202;0.278;2023-05-03T10:36:41;102351.11;;;19.83;39.97
77975;BME280;67164;51.202;0.278;2023-05-03T10:39:05;102349.01;;;19.86;39.93
77975;BME280;67164;51.202;0.278;2023-05-03T10:41:32;102346.09;;;19.76;40.11
77975;BME280;67164;51.202;0.278;2023-05-03T10:43:56;102343.14;;;19.92;40.08
77975;BME280;67164;51.202;0.278;2023-05-03T10:46:32;102336.51;;;20.46;39.78
77975;BME280;67164;51.202;0.278;2023-05-03T10:53:40;102334.51;;;19.62;40.62
77975;BME280;67164;51.202;0.278;2023-05-03T10:56:07;102327.46;;;20.23;40.67
77975;BME280;67164;51.202;0.278;2023-05-03T10:58:34;102324.93;;;20.33;39.99
77975;BME280;67164;51.202;0.278;2023-05-03T11:00:57;102320.34;;;20.36;39.72
77975;BME280;67164;51.202;0.278;2023-05-03T11:03:33;102317.83;;;20.67;39.94
77975;BME280;67164;51.202;0.278;2023-05-03T11:05:48;102320.67;;;20.70;40.03
77975;BME280;67164;51.202;0.278;2023-05-03T11:08:16;102313.00;;;20.65;39.79
77975;BME280;67164;51.202;0.278;2023-05-03T11:10:40;102311.76;;;20.41;40.30
77975;BME280;67164;51.202;0.278;2023-05-03T11:13:05;102307.35;;;20.67;40.55
77975;BME280;67164;51.202;0.278;2023-05-03T11:15:31;102303.84;;;20.84;40.41
77975;BME280;67164;51.202;0.278;2023-05-03T11:17:57;102304.40;;;20.39;40.92
77975;BME280;67164;51.202;0.278;2023-05-03T11:20:23;102301.07;;;20.70;40.80
77975;BME280;67164;51.202;0.278;2023-05-03T11:22:48;102295.70;;;20.88;40.80
77975;BME280;67164;51.202;0.278;2023-05-03T11:25:14;102295.51;;;20.28;41.15
77975;BME280;67164;51.202;0.278;2023-05-03T11:27:40;102294.85;;;20.30;41.23
77975;BME280;67164;51.202;0.278;2023-05-03T11:30:06;102292.71;;;20.25;41.06
77975;BME280;67164;51.202;0.278;2023-05-03T11:32:32;102290.30;;;20.16;40.97
77975;BME280;67164;51.202;0.278;2023-05-03T11:34:57;102286.02;;;20.27;41.37
77975;BME280;67164;51.202;0.278;2023-05-03T11:37:24;102277.85;;;20.69;41.40
77975;BME280;67164;51.202;0.278;2023-05-03T11:39:49;102274.87;;;20.27;41.28
77975;BME280;67164;51.202;0.278;2023-05-03T11:42:15;102271.18;;;20.75;41.31
77975;BME280;67164;51.202;0.278;2023-05-03T11:44:40;102267.69;;;20.42;41.04
77975;BME280;67164;51.202;0.278;2023-05-03T11:47:06;102270.71;;;20.71;41.24
77975;BME280;67164;51.202;0.278;2023-05-03T11:49:32;102257.04;;;19.85;41.74
77975;BME280;67164;51.202;0.278;2023-05-03T11:51:58;102250.75;;;19.72;41.89
77975;BME280;67164;51.202;0.278;2023-05-03T11:54:24;102246.00;;;20.04;42.89
77975;BME280;67164;51.202;0.278;2023-05-03T11:56:50;102240.84;;;19.64;43.36
77975;BME280;67164;51.202;0.278;2023-05-03T11:59:15;102239.77;;;19.80;43.45
77975;BME280;67164;51.202;0.278;2023-05-03T12:01:41;102234.62;;;19.59;44.38
77975;BME280;67164;51.202;0.278;2023-05-03T12:04:06;102238.22;;;19.79;44.05
77975;BME280;67164;51.202;0.278;2023-05-03T12:06:33;102236.16;;;19.75;43.86
77975;BME280;67164;51.202;0.278;2023-05-03T12:09:00;102229.17;;;19.49;43.86
77975;BME280;67164;51.202;0.278;2023-05-03T12:11:24;102223.49;;;20.17;43.91
77975;BME280;67164;51.202;0.278;2023-05-03T12:13:55;102228.27;;;19.87;43.72
77975;BME280;67164;51.202;0.278;2023-05-03T12:16:15;102234.24;;;20.59;42.91
77975;BME280;67164;51.202;0.278;2023-05-03T12:18:46;102225.85;;;20.31;43.09
77975;BME280;67164;51.202;0.278;2023-05-03T12:21:06;102218.80;;;20.45;42.25
77975;BME280;67164;51.202;0.278;2023-05-03T12:23:32;102220.02;;;20.39;42.04
77975;BME280;67164;51.202;0.278;2023-05-03T12:25:58;102217.71;;;20.29;41.63
77975;BME280;67164;51.202;0.278;2023-05-03T12:28:24;102209.68;;;19.53;42.53
77975;BME280;67164;51.202;0.278;2023-05-03T12:30:49;102203.37;;;19.96;42.58
77975;BME280;67164;51.202;0.278;2023-05-03T12:33:15;102202.61;;;19.53;42.97
77975;BME280;67164;51.202;0.278;2023-05-03T12:35:41;102200.04;;;19.72;42.45
77975;BME280;67164;51.202;0.278;2023-05-03T12:38:06;102200.14;;;19.98;42.42
77975;BME280;67164;51.202;0.278;2023-05-03T12:40:32;102200.78;;;19.50;42.78
77975;BME280;67164;51.202;0.278;2023-05-03T12:42:57;102197.23;;;19.87;42.65
77975;BME280;67164;51.202;0.278;2023-05-03T12:45:26;102195.93;;;19.93;42.56
77975;BME280;67164;51.202;0.278;2023-05-03T12:47:50;102192.81;;;19.48;42.90
77975;BME280;67164;51.202;0.278;2023-05-03T12:50:15;102190.43;;;19.90;43.04